Date,TemperatureHighF,TemperatureAvgF,TemperatureLowF,DewpointHighF,DewpointAvgF,DewpointLowF,HumidityHigh,HumidityAvg,HumidityLow,PressureMaxIn,PressureMinIn,WindSpeedMaxMPH,WindSpeedAvgMPH,GustSpeedMaxMPH,PrecipitationSumIn
2013-3-1,30,24,18,21,18,13,84,76,66,30.28,30.15,9,2,14,0.00
2013-3-2,26,18,8,18,11,7,96,74,47,30.29,30.11,5,0,10,0.00
2013-3-3,32,24,12,17,14,8,84,66,50,30.12,29.92,9,2,14,0.00
2013-3-4,26,24,22,24,21,17,99,89,68,29.98,29.88,12,4,18,0.00
2013-3-5,29,25,22,28,25,21,99,98,92,30.24,29.91,7,2,11,0.06
2013-3-6,28,22,9,22,19,8,99,89,75,30.35,30.23,8,2,14,0.02
2013-3-7,29,17,4,23,14,3,99,89,76,30.32,30.22,7,1,11,0.01
2013-3-8,37,27,16,33,25,15,99,93,85,30.26,30.03,7,2,12,0.00
2013-3-9,36,35,33,36,35,32,99,99,93,30.04,29.65,8,2,14,0.77
2013-3-10,35,33,29,34,33,28,99,98,94,29.88,29.71,13,4,23,0.02
2013-3-11,30,27,21,28,25,19,99,93,79,29.80,29.69,9,4,17,0.00
2013-3-12,27,24,19,25,19,13,99,83,61,30.13,29.78,12,4,24,0.01
2013-3-13,30,21,11,21,16,11,99,81,62,30.32,30.13,7,2,12,0.00
2013-3-14,38,29,23,32,27,21,99,91,77,30.20,29.96,7,1,11,0.02
2013-3-15,34,31,26,34,31,26,99,99,99,29.97,29.75,7,1,11,0.01
2013-3-16,26,22,14,26,18,9,99,84,65,30.18,29.83,10,4,15,0.00
2013-3-17,27,18,7,24,11,1,89,72,64,30.20,29.83,10,4,17,0.00
2013-3-18,30,21,11,30,19,8,99,92,78,29.83,29.56,15,6,28,0.02
2013-3-19,21,13,6,9,4,-1,85,70,50,30.14,29.78,13,7,24,0.00
2013-3-20,19,12,5,6,2,-2,74,64,55,30.16,30.06,14,5,24,0.00
2013-3-21,27,16,0,14,7,-3,86,68,54,30.08,29.97,5,1,9,0.00
2013-3-22,33,22,6,19,13,3,90,69,51,30.06,29.98,4,1,102,0.00
2013-3-23,38,29,16,24,20,13,90,70,52,30.11,30.02,4,1,8,0.00
2013-3-24,33,29,26,27,25,22,93,83,69,30.05,29.92,10,2,15,0.00
2013-3-25,38,31,23,23,21,18,83,68,52,30.17,29.97,9,4,16,0.00
2013-3-26,39,29,23,36,23,21,91,77,56,30.25,30.16,49,2,49,0.00
2013-3-27,42,31,17,31,22,17,99,71,48,30.29,30.24,4,0,8,0.00
2013-3-28,41,31,17,31,24,16,99,77,55,30.30,30.22,4,1,10,0.19
2013-3-29,46,36,25,39,33,24,99,88,69,30.24,30.03,6,1,11,0.00
2013-3-30,52,42,35,48,41,34,99,94,83,30.03,29.80,8,2,13,0.06
2013-3-31,39,33,24,35,27,16,99,80,47,30.04,29.76,15,5,27,0.01